North Central State Information

FAA: SFZ - ICAO: KSFZ

North Central State (Airport) Location

State Rhode Island
County Providence
City Pawtucket
North Central State (Airport) is 3 miles east of Pawtucket, RI.
Latitude 41-55-14.7000N
Longitude 071-29-29.1000W
Elevation 440ft

North Central State METARs

METAR KSFZ 251656Z AUTO 01007KT 1/4SM FG OVC002 12/12 A2998 RMK AO2 SLP160 T01170117 PNO $
Altimeter 29.98"
Temperature 11.7°C (53.1°F)
Wind 10° at 7KT
Clouds overcast at 200ft
Visibility 0.25mi
Time observed: 2021-10-25T16:56:00Z

North Central State (Airport) Details

Status Operational
Activation December 1951
Ownership Public
Usage Public
Chart NEW YORK
ATC on-site No
Beacon schedule sunset-sunrise
Beacon color clear green

North Central State (Airport) Contacts

Owner STATE OF RHODE ISLAND
Owner address RHODE ISLAND AIRPORT CORPORATION, WARWICK, RI 02886
Owner phone (401) 691-2000
Manager DON E. ECKERT
Manager address PO BOX 1702, YORK, PA 17405
Manager phone 717-764-9864

North Central State Radio Frequencies

North Central State (Airport) Radio Frequencies

UNICOM 123.075
Common traffic advisory frequency (CTAF) 123.075